createdAt,value
2018-03-21T00:00:08.196Z,92.93
2018-03-21T00:02:35.763Z,73.27
2018-03-21T00:05:03.392Z,85.80
2018-03-21T00:07:31.020Z,95.20
2018-03-21T00:09:58.582Z,99.60
2018-03-21T00:12:26.224Z,99.10
2018-03-21T00:14:53.792Z,84.20
2018-03-21T00:17:21.377Z,89.10
2018-03-21T00:19:48.940Z,87.73
2018-03-21T00:22:16.593Z,90.00
2018-03-21T00:24:44.233Z,95.43
2018-03-21T00:27:11.862Z,106.87
2018-03-21T00:29:39.434Z,110.33
2018-03-21T00:32:07.059Z,99.60
2018-03-21T00:34:34.706Z,73.80
2018-03-21T00:37:02.331Z,71.07
2018-03-21T00:39:29.920Z,82.47
2018-03-21T00:41:57.504Z,84.93
2018-03-21T00:44:25.095Z,81.87
2018-03-21T00:46:52.722Z,89.87
2018-03-21T00:49:20.364Z,73.30
2018-03-21T00:51:47.927Z,79.03
2018-03-21T00:54:15.546Z,80.87
2018-03-21T00:56:43.172Z,83.77
2018-03-21T00:59:10.730Z,81.50
2018-03-21T01:01:38.302Z,83.10
2018-03-21T01:04:05.883Z,87.80
2018-03-21T01:06:33.519Z,83.00
2018-03-21T01:09:01.144Z,83.97
2018-03-21T01:11:28.722Z,72.43
2018-03-21T01:13:56.299Z,64.30
2018-03-21T01:16:23.936Z,62.10
2018-03-21T01:18:51.507Z,64.20
2018-03-21T01:21:19.071Z,63.90
2018-03-21T01:23:46.654Z,67.90
2018-03-21T01:26:14.280Z,77.07
2018-03-21T01:28:41.913Z,72.23
2018-03-21T01:31:09.490Z,70.67
2018-03-21T01:33:37.078Z,66.73
2018-03-21T01:36:04.687Z,66.70
2018-03-21T01:38:32.352Z,79.37
2018-03-21T01:40:59.927Z,72.20
2018-03-21T01:43:27.502Z,61.70
2018-03-21T01:45:55.113Z,63.20
2018-03-21T01:48:22.683Z,60.90
2018-03-21T01:50:50.362Z,62.97
2018-03-21T01:53:17.941Z,69.63
2018-03-21T01:55:45.520Z,67.27
2018-03-21T01:58:13.091Z,68.90
2018-03-21T02:00:40.812Z,60.50
2018-03-21T02:03:08.450Z,62.40
2018-03-21T02:05:36.016Z,58.93
2018-03-21T02:08:03.587Z,62.87
2018-03-21T02:10:31.211Z,68.83
2018-03-21T02:12:58.790Z,64.50
2018-03-21T02:15:26.430Z,67.80
2018-03-21T02:17:54.058Z,67.13
2018-03-21T02:20:21.700Z,61.27
2018-03-21T02:22:49.267Z,55.07
2018-03-21T02:25:16.863Z,57.17
2018-03-21T02:27:44.425Z,54.43
2018-03-21T02:30:12.007Z,56.50
2018-03-21T02:32:39.665Z,49.60
2018-03-21T02:35:07.295Z,39.50
2018-03-21T02:37:34.854Z,34.37
2018-03-21T02:40:02.414Z,31.37
2018-03-21T02:42:29.988Z,30.07
2018-03-21T02:44:57.619Z,31.00
2018-03-21T02:47:25.195Z,44.83
2018-03-21T02:49:52.758Z,43.30
2018-03-21T02:52:20.434Z,34.87
2018-03-21T02:54:48.089Z,30.00
2018-03-21T02:57:15.721Z,28.27
2018-03-21T02:59:43.309Z,27.70
2018-03-21T03:02:10.905Z,27.40
2018-03-21T03:04:38.543Z,23.67
2018-03-21T03:07:06.112Z,21.87
2018-03-21T03:09:33.754Z,26.20
2018-03-21T03:12:01.411Z,28.00
2018-03-21T03:14:29.094Z,27.83
2018-03-21T03:16:56.728Z,27.70
2018-03-21T03:19:24.396Z,32.03
2018-03-21T03:21:52.027Z,29.67
2018-03-21T03:24:19.590Z,30.97
2018-03-21T03:26:47.222Z,30.90
2018-03-21T03:29:14.874Z,30.93
2018-03-21T03:31:42.450Z,32.73
2018-03-21T03:34:10.033Z,24.50
2018-03-21T03:36:37.724Z,21.93
2018-03-21T03:39:05.383Z,23.00
2018-03-21T03:41:32.948Z,39.57
2018-03-21T03:44:00.534Z,40.23
2018-03-21T03:46:28.105Z,29.47
2018-03-21T03:48:55.669Z,34.00
2018-03-21T03:51:23.233Z,34.37
2018-03-21T03:53:50.879Z,39.57
2018-03-21T03:56:18.494Z,36.83
2018-03-21T03:58:46.054Z,29.10
2018-03-21T04:01:13.623Z,31.30
2018-03-21T04:03:41.198Z,29.63
2018-03-21T04:06:08.890Z,28.53
2018-03-21T04:08:36.464Z,28.33
2018-03-21T04:11:04.094Z,28.97
2018-03-21T04:13:31.710Z,27.70
2018-03-21T04:15:59.284Z,27.50
2018-03-21T04:18:26.862Z,28.77
2018-03-21T04:20:54.490Z,31.50
2018-03-21T04:23:22.118Z,32.20
2018-03-21T04:25:49.687Z,31.50
2018-03-21T04:28:17.344Z,32.10
2018-03-21T04:30:44.914Z,36.00
2018-03-21T04:33:12.481Z,38.10
2018-03-21T04:35:40.113Z,31.87
2018-03-21T04:38:07.744Z,33.53
2018-03-21T04:40:35.321Z,33.87
2018-03-21T04:43:02.890Z,33.20
2018-03-21T04:45:30.503Z,36.27
2018-03-21T04:47:58.114Z,39.73
2018-03-21T04:50:25.779Z,37.20
2018-03-21T04:52:53.402Z,95.80
2018-03-21T04:55:21.032Z,43.67
2018-03-21T04:57:48.647Z,29.03
2018-03-21T05:00:16.218Z,29.30
2018-03-21T05:02:43.783Z,32.73
2018-03-21T05:05:11.392Z,40.00
2018-03-21T05:07:38.971Z,43.53
2018-03-21T05:10:06.534Z,43.67
2018-03-21T05:12:34.173Z,45.43
2018-03-21T05:15:01.738Z,50.07
2018-03-21T05:17:29.306Z,56.33
2018-03-21T05:19:56.875Z,55.80
2018-03-21T05:22:24.441Z,61.70
2018-03-21T05:24:52.025Z,52.00
2018-03-21T05:27:19.587Z,47.73
2018-03-21T05:29:47.158Z,49.10
2018-03-21T05:32:14.731Z,55.27
2018-03-21T05:34:42.367Z,69.97
2018-03-21T05:37:10.004Z,53.67
2018-03-21T05:39:37.564Z,47.53
2018-03-21T05:42:05.139Z,47.43
2018-03-21T05:44:32.694Z,45.10
2018-03-21T05:47:00.266Z,48.90
2018-03-21T05:49:27.890Z,51.63
2018-03-21T05:51:55.463Z,51.40
2018-03-21T05:54:23.030Z,74.63
2018-03-21T05:56:50.713Z,54.17
2018-03-21T05:59:18.318Z,52.43
2018-03-21T06:01:45.881Z,59.67
2018-03-21T06:04:14.363Z,55.60
2018-03-21T06:06:41.937Z,50.33
2018-03-21T06:09:09.576Z,58.33
2018-03-21T06:11:37.147Z,52.90
2018-03-21T06:14:04.774Z,41.10
2018-03-21T06:16:32.349Z,44.30
2018-03-21T06:18:59.963Z,41.90
2018-03-21T06:21:27.525Z,39.03
2018-03-21T06:23:55.091Z,35.73
2018-03-21T06:26:22.680Z,32.70
2018-03-21T06:28:50.252Z,33.70
2018-03-21T06:31:17.892Z,29.57
2018-03-21T06:33:45.514Z,31.97
2018-03-21T06:36:13.097Z,33.47
2018-03-21T06:38:40.719Z,38.50
2018-03-21T06:41:08.294Z,42.87
2018-03-21T06:43:35.869Z,58.77
2018-03-21T06:46:03.495Z,50.80
2018-03-21T06:48:31.055Z,49.63
2018-03-21T06:50:58.676Z,44.10
2018-03-21T06:53:26.242Z,36.13
2018-03-21T06:55:53.807Z,36.00
2018-03-21T06:58:21.449Z,35.40
2018-03-21T07:00:49.014Z,34.57
2018-03-21T07:03:16.640Z,32.27
2018-03-21T07:05:44.212Z,37.13
2018-03-21T07:08:11.784Z,39.77
2018-03-21T07:10:39.414Z,39.50
2018-03-21T07:13:07.096Z,47.40
2018-03-21T07:15:46.623Z,51.40
2018-03-21T07:18:14.261Z,62.37
2018-03-21T07:20:41.893Z,83.40
2018-03-21T07:23:09.556Z,80.17
2018-03-21T07:25:37.199Z,80.00
2018-03-21T07:28:04.812Z,72.40
2018-03-21T07:30:32.450Z,75.00
2018-03-21T07:33:00.021Z,69.40
2018-03-21T07:35:27.594Z,70.73
2018-03-21T07:37:55.164Z,66.40
2018-03-21T07:40:22.791Z,59.60
2018-03-21T07:42:50.352Z,44.23
2018-03-21T07:45:17.921Z,41.17
2018-03-21T07:47:45.558Z,52.77
2018-03-21T07:50:13.182Z,46.20
2018-03-21T07:52:40.776Z,18.20
2018-03-21T07:55:08.341Z,21.83
2018-03-21T07:57:35.978Z,30.53
2018-03-21T08:00:03.544Z,28.33
2018-03-21T08:02:31.120Z,15.60
2018-03-21T08:04:58.679Z,12.17
2018-03-21T08:07:26.297Z,11.20
2018-03-21T08:09:53.931Z,14.50
2018-03-21T08:12:21.504Z,9.83
2018-03-21T08:14:49.134Z,10.00
2018-03-21T08:17:16.686Z,8.10
2018-03-21T08:19:44.247Z,12.70
2018-03-21T08:22:11.809Z,9.33
2018-03-21T08:24:39.454Z,12.60
2018-03-21T08:27:07.074Z,12.60
2018-03-21T08:29:34.691Z,12.40
2018-03-21T08:32:02.295Z,13.93
2018-03-21T08:34:29.858Z,19.60
2018-03-21T08:36:57.442Z,33.30
2018-03-21T08:39:25.012Z,36.47
2018-03-21T08:41:52.596Z,35.10
2018-03-21T08:44:20.158Z,28.10
2018-03-21T08:46:47.731Z,21.60
2018-03-21T08:49:15.296Z,17.87
2018-03-21T08:51:42.991Z,18.60
2018-03-21T08:54:10.778Z,20.00
2018-03-21T08:56:38.346Z,17.97
2018-03-21T08:59:05.920Z,21.73
2018-03-21T09:01:33.495Z,13.17
2018-03-21T09:04:01.071Z,21.70
2018-03-21T09:06:28.640Z,24.77
2018-03-21T09:08:56.275Z,22.60
2018-03-21T09:11:23.842Z,22.97
2018-03-21T09:13:51.522Z,32.20
2018-03-21T09:16:19.151Z,29.77
2018-03-21T09:18:46.714Z,22.33
2018-03-21T09:21:14.350Z,23.67
2018-03-21T09:23:41.910Z,27.30
2018-03-21T09:26:09.505Z,27.30
2018-03-21T09:28:37.079Z,21.17
2018-03-21T09:31:04.723Z,20.90
2018-03-21T09:33:32.286Z,20.93
2018-03-21T09:35:59.978Z,25.40
2018-03-21T09:38:27.560Z,22.00
2018-03-21T09:40:55.143Z,20.57
2018-03-21T09:43:22.719Z,20.33
2018-03-21T09:45:50.283Z,20.40
2018-03-21T09:48:17.872Z,20.90
2018-03-21T09:50:45.443Z,16.40
2018-03-21T09:53:13.017Z,17.50
2018-03-21T09:55:40.582Z,18.60
2018-03-21T09:58:08.276Z,17.80
2018-03-21T10:00:35.853Z,19.30
2018-03-21T10:03:03.428Z,23.50
2018-03-21T10:05:31.064Z,18.67
2018-03-21T10:07:58.626Z,21.27
2018-03-21T10:10:26.196Z,23.70
2018-03-21T10:12:53.820Z,23.50
2018-03-21T10:15:21.406Z,20.90
2018-03-21T10:17:48.963Z,15.67
2018-03-21T10:20:16.613Z,16.60
2018-03-21T10:22:44.185Z,14.30
2018-03-21T10:25:11.753Z,17.77
2018-03-21T10:27:39.394Z,18.30
2018-03-21T10:30:07.024Z,24.13
2018-03-21T10:32:34.595Z,17.87
2018-03-21T10:35:02.158Z,21.87
2018-03-21T10:37:29.785Z,19.40
2018-03-21T10:39:57.342Z,21.40
2018-03-21T10:42:24.962Z,25.50
2018-03-21T10:44:52.606Z,23.30
2018-03-21T10:47:20.268Z,23.07
2018-03-21T10:49:47.876Z,20.23
2018-03-21T10:52:15.445Z,27.17
2018-03-21T10:54:43.086Z,21.50
2018-03-21T10:57:10.692Z,23.80
2018-03-21T10:59:38.307Z,36.40
2018-03-21T11:02:11.479Z,32.90
2018-03-21T11:04:39.185Z,28.03
2018-03-21T11:07:06.819Z,23.73
2018-03-21T11:09:34.388Z,22.03
2018-03-21T11:12:01.964Z,21.70
2018-03-21T11:14:29.530Z,19.20
2018-03-21T11:16:57.102Z,18.70
2018-03-21T11:19:24.666Z,19.87
2018-03-21T11:21:52.243Z,21.20
2018-03-21T11:24:19.898Z,24.10
2018-03-21T11:26:47.482Z,19.93
2018-03-21T11:29:15.044Z,20.50
2018-03-21T11:31:42.606Z,22.33
2018-03-21T11:34:10.270Z,21.60
2018-03-21T11:36:37.841Z,17.13
2018-03-21T11:39:05.420Z,19.97
2018-03-21T11:41:32.994Z,15.83
2018-03-21T11:44:00.627Z,17.47
2018-03-21T11:46:28.256Z,22.70
2018-03-21T11:48:55.834Z,24.83
2018-03-21T11:51:23.459Z,27.20
2018-03-21T11:53:51.085Z,24.87
2018-03-21T11:56:18.654Z,22.30
2018-03-21T11:58:46.221Z,18.63
2018-03-21T12:01:13.897Z,23.17
2018-03-21T12:03:41.767Z,24.03
2018-03-21T12:06:09.467Z,20.60
2018-03-21T12:08:37.137Z,23.07
2018-03-21T12:11:04.766Z,20.07
2018-03-21T12:13:32.327Z,23.87
2018-03-21T12:15:59.894Z,21.87
2018-03-21T12:18:27.534Z,19.17
2018-03-21T12:20:55.101Z,22.17
2018-03-21T12:23:22.673Z,23.13
2018-03-21T12:25:50.249Z,24.00
2018-03-21T12:28:17.822Z,20.97
2018-03-21T12:30:45.392Z,24.27
2018-03-21T12:33:13.014Z,21.60
2018-03-21T12:35:40.586Z,22.50
2018-03-21T12:38:08.255Z,21.63
2018-03-21T12:40:35.841Z,21.90
2018-03-21T12:43:03.421Z,26.00
2018-03-21T12:45:30.998Z,27.53
2018-03-21T12:47:58.577Z,26.27
2018-03-21T12:50:26.210Z,27.40
2018-03-21T12:52:53.779Z,30.50
2018-03-21T12:55:21.411Z,30.23
2018-03-21T12:57:49.035Z,30.07
2018-03-21T13:00:16.602Z,32.73
2018-03-21T13:02:44.183Z,33.67
2018-03-21T13:05:11.756Z,35.07
2018-03-21T13:07:39.340Z,38.33
2018-03-21T13:10:06.928Z,33.13
2018-03-21T13:12:34.510Z,30.70
2018-03-21T13:15:02.074Z,32.80
2018-03-21T13:17:29.702Z,35.70
2018-03-21T13:19:57.335Z,33.80
2018-03-21T13:22:24.939Z,36.10
2018-03-21T13:24:52.514Z,35.07
2018-03-21T13:27:20.138Z,36.20
2018-03-21T13:29:47.771Z,32.93
2018-03-21T13:32:15.399Z,33.83
2018-03-21T13:34:43.037Z,33.30
2018-03-21T13:37:10.602Z,36.20
2018-03-21T13:39:38.222Z,38.60
2018-03-21T13:42:05.843Z,35.80
2018-03-21T13:44:33.414Z,38.70
2018-03-21T13:47:01.063Z,39.07
2018-03-21T13:49:28.625Z,33.00
2018-03-21T13:51:56.203Z,40.17
2018-03-21T13:54:23.844Z,43.57
2018-03-21T13:56:51.475Z,44.33
2018-03-21T13:59:19.038Z,36.47
2018-03-21T14:01:46.654Z,37.20
2018-03-21T14:04:14.303Z,39.90
2018-03-21T14:06:41.928Z,34.20
2018-03-21T14:09:09.569Z,36.57
2018-03-21T14:11:37.233Z,41.20
2018-03-21T14:14:04.876Z,36.23
2018-03-21T14:16:32.478Z,41.13
2018-03-21T14:19:00.119Z,36.70
2018-03-21T14:21:27.747Z,36.67
2018-03-21T14:23:55.427Z,45.13
2018-03-21T14:26:23.057Z,35.37
2018-03-21T14:28:50.683Z,33.23
2018-03-21T14:31:18.273Z,47.70
2018-03-21T14:33:45.847Z,39.47
2018-03-21T14:36:13.420Z,40.33
2018-03-21T14:38:41.045Z,37.13
2018-03-21T14:41:08.735Z,40.23
2018-03-21T14:43:36.299Z,38.77
2018-03-21T14:46:03.876Z,38.07
2018-03-21T14:48:31.446Z,38.63
2018-03-21T14:50:59.088Z,42.37
2018-03-21T14:53:26.733Z,44.50
2018-03-21T14:55:54.376Z,47.20
2018-03-21T14:58:22.068Z,44.77
2018-03-21T15:00:51.168Z,48.13
2018-03-21T15:03:18.806Z,47.10
2018-03-21T15:05:46.487Z,43.50
2018-03-21T15:08:14.070Z,50.00
2018-03-21T15:10:41.654Z,50.87
2018-03-21T15:13:09.303Z,47.40
2018-03-21T15:15:36.884Z,51.23
2018-03-21T15:18:05.094Z,49.07
2018-03-21T15:20:32.718Z,54.53
2018-03-21T15:23:00.309Z,50.00
2018-03-21T15:25:27.883Z,49.37
2018-03-21T15:27:55.457Z,53.67
2018-03-21T15:30:23.020Z,52.77
2018-03-21T15:32:50.695Z,53.53
2018-03-21T15:35:18.346Z,48.90
2018-03-21T15:37:45.945Z,64.00
2018-03-21T15:40:13.528Z,55.77
2018-03-21T15:42:41.167Z,54.63
2018-03-21T15:45:08.757Z,55.30
2018-03-21T15:47:36.420Z,56.17
2018-03-21T15:50:04.075Z,55.00
2018-03-21T15:52:31.659Z,48.20
2018-03-21T15:54:59.243Z,52.03
2018-03-21T15:57:26.880Z,50.60
2018-03-21T15:59:54.517Z,54.87
2018-03-21T16:02:22.693Z,49.97
2018-03-21T16:04:50.274Z,56.20
2018-03-21T16:07:18.595Z,54.97
2018-03-21T16:09:46.227Z,54.90
2018-03-21T16:12:13.810Z,57.03
2018-03-21T16:14:41.401Z,56.10
2018-03-21T16:17:09.047Z,50.17
2018-03-21T16:19:36.618Z,50.53
2018-03-21T16:22:04.256Z,56.10
2018-03-21T16:24:31.833Z,53.20
2018-03-21T16:26:59.498Z,52.20
2018-03-21T16:29:27.080Z,51.63
2018-03-21T16:31:54.654Z,53.40
2018-03-21T16:34:22.235Z,56.77
2018-03-21T16:36:49.810Z,48.30
2018-03-21T16:39:17.400Z,60.20
2018-03-21T16:41:44.970Z,55.97
2018-03-21T16:44:12.590Z,55.47
2018-03-21T16:46:40.178Z,54.30
2018-03-21T16:49:07.764Z,53.20
2018-03-21T16:51:35.362Z,69.20
2018-03-21T16:54:02.999Z,57.10
2018-03-21T16:56:30.574Z,54.90
2018-03-21T16:58:58.224Z,60.60
2018-03-21T17:01:25.802Z,58.40
2018-03-21T17:03:53.371Z,54.43
2018-03-21T17:06:20.995Z,57.87
2018-03-21T17:08:48.578Z,60.67
2018-03-21T17:11:16.206Z,63.43
2018-03-21T17:13:43.794Z,62.30
2018-03-21T17:16:11.375Z,103.73
2018-03-21T17:18:39.050Z,58.83
2018-03-21T17:21:06.627Z,56.57
2018-03-21T17:23:34.251Z,62.67
2018-03-21T17:26:01.886Z,57.67
2018-03-21T17:28:29.533Z,60.30
2018-03-21T17:30:57.114Z,58.17
2018-03-21T17:33:24.691Z,61.10
2018-03-21T17:35:52.280Z,61.67
2018-03-21T17:38:19.866Z,60.67
2018-03-21T17:40:47.448Z,57.97
2018-03-21T17:43:15.054Z,67.00
2018-03-21T17:45:42.716Z,62.87
2018-03-21T17:48:10.302Z,74.07
2018-03-21T17:50:37.887Z,70.00
2018-03-21T17:53:05.476Z,76.20
2018-03-21T17:55:33.061Z,81.70
2018-03-21T17:58:00.650Z,80.57
2018-03-21T18:00:28.297Z,81.83
2018-03-21T18:02:55.884Z,80.37
2018-03-21T18:05:23.456Z,73.90
2018-03-21T18:07:51.143Z,75.10
2018-03-21T18:10:18.723Z,67.33
2018-03-21T18:12:46.371Z,83.90
2018-03-21T18:15:13.989Z,87.10
2018-03-21T18:17:41.566Z,77.80
2018-03-21T18:20:09.150Z,70.40
2018-03-21T18:22:36.730Z,69.97
2018-03-21T18:25:04.344Z,68.10
2018-03-21T18:27:31.916Z,65.30
2018-03-21T18:29:59.556Z,66.03
2018-03-21T18:32:27.156Z,75.17
2018-03-21T18:34:54.809Z,74.57
2018-03-21T18:37:22.473Z,69.07
2018-03-21T18:39:50.116Z,66.60
2018-03-21T18:42:17.794Z,76.20
2018-03-21T18:44:45.431Z,79.60
2018-03-21T18:47:13.044Z,67.47
2018-03-21T18:49:40.707Z,66.50
2018-03-21T18:52:08.387Z,74.80
2018-03-21T18:54:36.134Z,73.20
2018-03-21T18:57:03.774Z,59.53
2018-03-21T18:59:31.567Z,60.17
2018-03-21T19:01:59.257Z,58.90
2018-03-21T19:04:26.909Z,64.20
2018-03-21T19:06:54.601Z,111.33
2018-03-21T19:09:22.291Z,92.73
2018-03-21T19:11:49.867Z,77.63
2018-03-21T19:14:17.521Z,66.67
2018-03-21T19:16:45.255Z,68.60
2018-03-21T19:19:12.840Z,67.10
2018-03-21T19:21:40.488Z,77.17
2018-03-21T19:24:08.244Z,73.27
2018-03-21T19:26:35.904Z,62.57
2018-03-21T19:29:04.048Z,60.53
2018-03-21T19:31:31.637Z,67.60
2018-03-21T19:33:59.291Z,68.87
2018-03-21T19:36:27.027Z,67.07
2018-03-21T19:38:54.598Z,69.43
2018-03-21T19:41:22.178Z,70.47
2018-03-21T19:43:49.839Z,70.33
2018-03-21T19:46:17.470Z,76.87
2018-03-21T19:48:45.080Z,75.00
2018-03-21T19:51:13.922Z,67.63
2018-03-21T19:53:41.507Z,78.40
2018-03-21T19:56:09.094Z,84.07
2018-03-21T19:58:36.742Z,82.77
2018-03-21T20:01:04.325Z,70.90
2018-03-21T20:03:31.964Z,81.97
2018-03-21T20:05:59.608Z,80.60
2018-03-21T20:08:27.193Z,78.50
2018-03-21T20:10:54.780Z,83.43
2018-03-21T20:13:22.408Z,70.40
2018-03-21T20:15:50.036Z,80.70
2018-03-21T20:18:17.603Z,69.37
2018-03-21T20:20:45.222Z,62.20
2018-03-21T20:23:12.851Z,64.27
2018-03-21T20:25:40.534Z,73.40
2018-03-21T20:28:08.136Z,70.97
2018-03-21T20:30:35.725Z,66.27
2018-03-21T20:33:03.371Z,66.43
2018-03-21T20:35:30.945Z,65.80
2018-03-21T20:37:58.605Z,66.40
2018-03-21T20:40:26.237Z,67.70
2018-03-21T20:42:53.825Z,63.27
2018-03-21T20:45:21.402Z,67.90
2018-03-21T20:47:49.046Z,60.90
2018-03-21T20:50:16.622Z,66.07
2018-03-21T20:52:44.200Z,71.00
2018-03-21T20:55:11.801Z,64.27
2018-03-21T20:57:39.450Z,63.63
2018-03-21T21:00:07.090Z,61.33
2018-03-21T21:02:34.714Z,62.33
2018-03-21T21:05:02.352Z,64.93
2018-03-21T21:07:30.000Z,60.20
2018-03-21T21:09:57.631Z,63.53
2018-03-21T21:12:25.275Z,66.20
2018-03-21T21:14:52.844Z,65.53
2018-03-21T21:17:20.425Z,63.07
2018-03-21T21:19:48.080Z,61.20
2018-03-21T21:22:15.780Z,64.40
2018-03-21T21:24:43.372Z,61.53
2018-03-21T21:27:10.942Z,64.93
2018-03-21T21:29:38.526Z,63.47
2018-03-21T21:32:06.103Z,58.53
2018-03-21T21:34:33.695Z,56.90
2018-03-21T21:37:01.273Z,56.70
2018-03-21T21:39:28.864Z,55.80
2018-03-21T21:41:56.503Z,57.30
2018-03-21T21:44:24.132Z,60.80
2018-03-21T21:46:51.802Z,63.20
2018-03-21T21:49:19.484Z,60.83
2018-03-21T21:51:47.123Z,55.97
2018-03-21T21:54:14.702Z,55.50
2018-03-21T21:56:42.283Z,56.40
2018-03-21T21:59:09.925Z,60.43
2018-03-21T22:01:37.514Z,67.27
2018-03-21T22:04:05.125Z,108.77
2018-03-21T22:06:32.763Z,81.33
2018-03-21T22:09:00.335Z,56.27
2018-03-21T22:11:27.905Z,56.10
2018-03-21T22:13:55.491Z,54.27
2018-03-21T22:16:23.124Z,58.20
2018-03-21T22:18:50.709Z,59.03
2018-03-21T22:21:18.338Z,55.80
2018-03-21T22:23:45.915Z,55.43
2018-03-21T22:26:13.484Z,68.03
2018-03-21T22:28:41.106Z,58.73
2018-03-21T22:31:08.739Z,60.77
2018-03-21T22:33:36.311Z,61.50
2018-03-21T22:36:03.890Z,61.60
2018-03-21T22:38:31.454Z,58.70
2018-03-21T22:40:59.043Z,58.67
2018-03-21T22:43:26.615Z,63.37
2018-03-21T22:45:54.193Z,62.93
2018-03-21T22:48:21.765Z,66.10
2018-03-21T22:50:49.454Z,59.97
2018-03-21T22:53:17.127Z,58.23
2018-03-21T22:55:44.744Z,62.60
2018-03-21T22:58:12.340Z,61.07
2018-03-21T23:00:39.998Z,59.37
2018-03-21T23:03:07.561Z,55.20
2018-03-21T23:05:35.131Z,60.10
2018-03-21T23:08:02.722Z,56.43
2018-03-21T23:10:30.298Z,55.47
2018-03-21T23:12:57.987Z,55.30
2018-03-21T23:15:25.624Z,55.90
2018-03-21T23:17:53.194Z,58.93
2018-03-21T23:20:20.780Z,51.20
2018-03-21T23:22:48.354Z,51.13
2018-03-21T23:25:15.991Z,55.10
2018-03-21T23:27:43.573Z,55.83
2018-03-21T23:30:11.223Z,54.50
2018-03-21T23:32:38.794Z,55.80
2018-03-21T23:35:06.485Z,54.00
2018-03-21T23:37:34.122Z,52.70
2018-03-21T23:40:01.709Z,54.57
2018-03-21T23:42:29.301Z,54.40
2018-03-21T23:44:56.880Z,54.53
2018-03-21T23:47:24.527Z,55.47
2018-03-21T23:49:52.117Z,51.23
2018-03-21T23:52:19.704Z,53.47
2018-03-21T23:54:47.291Z,55.80
2018-03-21T23:57:14.927Z,55.60
2018-03-21T23:59:42.582Z,57.87
